Time;durP1;ratioP1;P1;durP2;ratioP2;P2;SDS_P1;SDS_P2;PMS_P1;PMS_P2;Temp;Humidity;BMP_temperature;BMP_pressure;BME280_temperature;BME280_humidity;BME280_pressure;Samples;Min_cycle;Max_cycle;Signal;HPM_P1;HPM_P2
2024/01/16 00:00:51;;;;;;;16.17;10.50;;;;;;;;;;10196474;29;20047;-66
2024/01/16 00:05:52;;;;;;;17.80;11.27;;;;;;;;;;10204603;29;20028;-66
2024/01/16 00:10:52;;;;;;;23.83;11.43;;;;;;;;;;10204520;29;20038;-66
2024/01/16 00:15:53;;;;;;;18.38;11.52;;;;;;;;;;10204123;29;20032;-65
2024/01/16 00:20:53;;;;;;;14.10;9.93;;;;;;;;;;10191653;29;20054;-67
2024/01/16 00:25:54;;;;;;;15.60;9.90;;;;;;;;;;10199129;29;20032;-67
2024/01/16 00:30:55;;;;;;;15.50;10.40;;;;;;;;;;10212165;29;20039;-67
2024/01/16 00:35:55;;;;;;;16.00;10.63;;;;;;;;;;10211418;29;20176;-68
2024/01/16 00:40:56;;;;;;;16.10;10.40;;;;;;;;;;10200097;29;20032;-68
2024/01/16 00:45:56;;;;;;;19.33;10.55;;;;;;;;;;10208409;29;20031;-68
2024/01/16 00:50:57;;;;;;;15.13;9.55;;;;;;;;;;10211862;28;20060;-68
2024/01/16 00:55:57;;;;;;;16.55;9.98;;;;;;;;;;10198916;29;20086;-67
2024/01/16 01:00:58;;;;;;;14.27;9.98;;;;;;;;;;10210803;29;20030;-68
2024/01/16 01:06:00;;;;;;;12.10;9.40;;;;;;;;;;10210563;29;20549;-68
2024/01/16 01:11:01;;;;;;;13.50;10.00;;;;;;;;;;10209844;29;20039;-68
2024/01/16 01:16:01;;;;;;;15.35;10.27;;;;;;;;;;10208025;29;20441;-68
2024/01/16 01:21:02;;;;;;;15.95;10.55;;;;;;;;;;10197896;28;22100;-68
2024/01/16 01:26:03;;;;;;;15.40;10.13;;;;;;;;;;10196341;29;20110;-66
2024/01/16 01:31:04;;;;;;;11.68;9.13;;;;;;;;;;10222979;29;20558;-66
2024/01/16 01:36:05;;;;;;;15.60;10.25;;;;;;;;;;10186999;29;20051;-66
2024/01/16 01:41:05;;;;;;;16.58;8.75;;;;;;;;;;10212822;29;20467;-66
2024/01/16 01:46:19;;;;;;;11.95;9.00;;;;;;;;;;10207964;29;20486;-66
2024/01/16 01:51:20;;;;;;;15.75;10.00;;;;;;;;;;10208958;29;20031;-66
2024/01/16 01:56:21;;;;;;;12.60;8.60;;;;;;;;;;10206125;29;20035;-65
2024/01/16 02:01:22;;;;;;;10.20;7.93;;;;;;;;;;10208511;29;20467;-66
2024/01/16 02:06:23;;;;;;;13.88;8.88;;;;;;;;;;10207030;29;20123;-66
2024/01/16 02:11:25;;;;;;;12.88;8.20;;;;;;;;;;10184179;28;20235;-66
2024/01/16 02:16:25;;;;;;;11.73;8.43;;;;;;;;;;10205710;29;20137;-66
2024/01/16 02:21:29;;;;;;;12.80;8.90;;;;;;;;;;10189420;29;20212;-66
2024/01/16 02:26:30;;;;;;;10.02;7.90;;;;;;;;;;10201540;29;20058;-66
2024/01/16 02:31:35;;;;;;;11.02;7.68;;;;;;;;;;10207480;28;20047;-66
2024/01/16 02:36:36;;;;;;;11.07;7.90;;;;;;;;;;10199795;29;20063;-66
2024/01/16 02:41:36;;;;;;;12.50;8.10;;;;;;;;;;10199786;29;20043;-66
2024/01/16 02:46:38;;;;;;;15.13;8.15;;;;;;;;;;10205664;29;20438;-66
2024/01/16 02:51:39;;;;;;;11.15;7.63;;;;;;;;;;10206321;29;20024;-65
2024/01/16 02:56:40;;;;;;;10.05;7.65;;;;;;;;;;10206713;29;20031;-65
2024/01/16 03:01:40;;;;;;;13.05;8.23;;;;;;;;;;10214517;29;20027;-65
2024/01/16 03:06:41;;;;;;;8.55;6.72;;;;;;;;;;10205879;29;20035;-66
2024/01/16 03:11:41;;;;;;;10.85;7.53;;;;;;;;;;10205857;29;20168;-67
2024/01/16 03:16:42;;;;;;;11.75;8.43;;;;;;;;;;10203167;29;20027;-67
2024/01/16 03:21:42;;;;;;;10.50;8.02;;;;;;;;;;10193847;29;20036;-66
2024/01/16 03:26:43;;;;;;;10.40;7.82;;;;;;;;;;10201560;29;20032;-66
2024/01/16 03:31:44;;;;;;;8.93;7.07;;;;;;;;;;10204960;29;20039;-66
2024/01/16 03:36:44;;;;;;;9.30;6.85;;;;;;;;;;10204527;29;20043;-66
2024/01/16 03:41:45;;;;;;;10.23;7.40;;;;;;;;;;10191388;29;20051;-66
2024/01/16 03:46:45;;;;;;;10.02;7.43;;;;;;;;;;10204700;29;20046;-67
2024/01/16 03:51:46;;;;;;;9.20;6.53;;;;;;;;;;10203355;29;20090;-66
2024/01/16 03:56:47;;;;;;;9.07;6.85;;;;;;;;;;10204084;29;20546;-67
2024/01/16 04:01:48;;;;;;;8.85;6.70;;;;;;;;;;10199983;29;20024;-67
2024/01/16 04:06:49;;;;;;;9.82;7.00;;;;;;;;;;10204699;29;20027;-67
2024/01/16 04:11:52;;;;;;;8.25;6.85;;;;;;;;;;10211837;28;20479;-68
2024/01/16 04:16:53;;;;;;;10.35;7.30;;;;;;;;;;10203495;29;20058;-67
2024/01/16 04:21:53;;;;;;;8.27;6.50;;;;;;;;;;10203896;29;20051;-68
2024/01/16 04:26:54;;;;;;;11.85;7.00;;;;;;;;;;10203434;29;20399;-63
2024/01/16 04:31:54;;;;;;;8.45;6.55;;;;;;;;;;10201853;29;20036;-64
2024/01/16 04:36:55;;;;;;;7.05;6.18;;;;;;;;;;10202802;29;20250;-66
2024/01/16 04:41:56;;;;;;;6.70;5.85;;;;;;;;;;10202794;29;20454;-65
2024/01/16 04:46:56;;;;;;;8.20;6.40;;;;;;;;;;10191353;28;20067;-65
2024/01/16 04:51:57;;;;;;;9.00;6.28;;;;;;;;;;10188962;29;20028;-64
2024/01/16 04:56:57;;;;;;;11.27;7.35;;;;;;;;;;10203715;29;20383;-65
2024/01/16 05:01:58;;;;;;;9.80;6.22;;;;;;;;;;10202089;29;20501;-65
2024/01/16 05:06:59;;;;;;;7.50;6.50;;;;;;;;;;10203134;29;20173;-65
2024/01/16 05:12:00;;;;;;;12.02;6.72;;;;;;;;;;10209062;29;20024;-66
2024/01/16 05:17:01;;;;;;;7.70;5.75;;;;;;;;;;10197835;29;20120;-66
2024/01/16 05:22:02;;;;;;;10.77;5.90;;;;;;;;;;10210248;29;20036;-66
2024/01/16 05:27:04;;;;;;;8.90;6.07;;;;;;;;;;10209170;28;20463;-65
2024/01/16 05:32:05;;;;;;;10.05;6.10;;;;;;;;;;10209372;28;20110;-66
2024/01/16 05:37:05;;;;;;;7.40;6.03;;;;;;;;;;10208774;28;20054;-66
2024/01/16 05:42:06;;;;;;;6.78;5.53;;;;;;;;;;10209564;28;20039;-66
2024/01/16 05:47:07;;;;;;;7.00;6.05;;;;;;;;;;10201994;29;20042;-66
2024/01/16 05:52:07;;;;;;;8.13;6.45;;;;;;;;;;10195597;29;20027;-66
2024/01/16 05:57:08;;;;;;;6.35;5.50;;;;;;;;;;10199861;29;20079;-66
2024/01/16 06:02:08;;;;;;;6.88;4.90;;;;;;;;;;10207901;28;20028;-66
2024/01/16 06:07:09;;;;;;;5.78;5.18;;;;;;;;;;10207967;29;20023;-65
2024/01/16 06:12:09;;;;;;;8.02;6.00;;;;;;;;;;10195772;29;20038;-66
2024/01/16 06:17:10;;;;;;;9.13;5.95;;;;;;;;;;10202098;29;20063;-66
2024/01/16 06:22:11;;;;;;;6.13;5.10;;;;;;;;;;10204906;29;20039;-65
2024/01/16 06:27:18;;;;;;;8.32;5.90;;;;;;;;;;10207141;29;20035;-65
2024/01/16 06:32:19;;;;;;;7.40;5.22;;;;;;;;;;10200126;29;20031;-66
2024/01/16 06:37:19;;;;;;;7.30;5.53;;;;;;;;;;10203692;28;20052;-67
2024/01/16 06:42:20;;;;;;;9.25;5.43;;;;;;;;;;10191638;29;20063;-66
2024/01/16 06:47:21;;;;;;;10.13;4.85;;;;;;;;;;10204906;28;20110;-66
2024/01/16 06:52:21;;;;;;;6.90;5.22;;;;;;;;;;10206774;29;20490;-66
2024/01/16 06:57:22;;;;;;;20.02;5.95;;;;;;;;;;10194072;29;20054;-67
2024/01/16 07:02:23;;;;;;;6.93;5.75;;;;;;;;;;10198751;29;20036;-67
2024/01/16 07:07:24;;;;;;;10.88;7.03;;;;;;;;;;10186187;29;20024;-67
2024/01/16 07:12:25;;;;;;;11.07;6.63;;;;;;;;;;10194028;29;20020;-68
2024/01/16 07:17:25;;;;;;;9.68;6.85;;;;;;;;;;10195962;29;20235;-65
2024/01/16 07:22:27;;;;;;;13.15;6.95;;;;;;;;;;10201149;29;20034;-68
2024/01/16 07:27:27;;;;;;;20.80;6.70;;;;;;;;;;10217090;28;20031;-62
2024/01/16 07:32:28;;;;;;;12.88;6.70;;;;;;;;;;10204753;29;20035;-65
2024/01/16 07:37:28;;;;;;;10.63;6.80;;;;;;;;;;10204744;29;20411;-63
2024/01/16 07:42:34;;;;;;;9.65;6.82;;;;;;;;;;10200915;29;20043;-66
2024/01/16 07:47:36;;;;;;;13.23;6.47;;;;;;;;;;10204436;29;20361;-62
2024/01/16 07:52:36;;;;;;;12.45;6.32;;;;;;;;;;10205271;29;20031;-64
2024/01/16 07:57:37;;;;;;;9.93;6.47;;;;;;;;;;10204979;29;20039;-62
2024/01/16 08:02:38;;;;;;;9.82;6.40;;;;;;;;;;10213288;29;20043;-62
2024/01/16 08:07:38;;;;;;;7.95;6.22;;;;;;;;;;10202665;29;20148;-62
2024/01/16 08:12:39;;;;;;;12.02;6.55;;;;;;;;;;10191336;29;20530;-62
2024/01/16 08:17:39;;;;;;;10.05;6.28;;;;;;;;;;10188149;29;20024;-62
2024/01/16 08:22:40;;;;;;;9.27;6.22;;;;;;;;;;10184076;29;20046;-62
2024/01/16 08:27:40;;;;;;;11.55;6.40;;;;;;;;;;10192584;28;20055;-63
2024/01/16 08:32:41;;;;;;;14.75;6.45;;;;;;;;;;10183631;29;20199;-67
2024/01/16 08:37:42;;;;;;;10.50;6.15;;;;;;;;;;10203101;29;20432;-67
2024/01/16 08:42:42;;;;;;;9.80;6.55;;;;;;;;;;10204389;29;20058;-66
2024/01/16 08:47:43;;;;;;;12.57;6.68;;;;;;;;;;10211098;29;20035;-68
2024/01/16 08:52:44;;;;;;;8.68;5.95;;;;;;;;;;10211331;29;20034;-67
2024/01/16 08:57:44;;;;;;;8.18;5.63;;;;;;;;;;10210473;29;20034;-67
2024/01/16 09:02:45;;;;;;;11.30;6.32;;;;;;;;;;10210415;29;20255;-67
2024/01/16 09:07:46;;;;;;;11.38;6.55;;;;;;;;;;10210736;29;20086;-66
2024/01/16 09:12:48;;;;;;;9.27;6.20;;;;;;;;;;10210669;29;20032;-62
2024/01/16 09:17:49;;;;;;;10.75;6.78;;;;;;;;;;10198191;29;20035;-63
2024/01/16 09:22:49;;;;;;;9.73;6.20;;;;;;;;;;10209686;29;20039;-63
2024/01/16 09:27:50;;;;;;;8.60;6.18;;;;;;;;;;10199847;29;20055;-62
2024/01/16 09:32:51;;;;;;;9.25;6.00;;;;;;;;;;10194040;29;20040;-63
2024/01/16 09:37:52;;;;;;;10.43;5.95;;;;;;;;;;10201410;29;20138;-64
2024/01/16 09:42:52;;;;;;;8.18;6.00;;;;;;;;;;10209313;29;20032;-63
2024/01/16 09:47:53;;;;;;;10.15;6.35;;;;;;;;;;10212189;29;20086;-63
2024/01/16 09:52:54;;;;;;;7.10;5.65;;;;;;;;;;10206912;29;20038;-66
2024/01/16 09:57:55;;;;;;;11.80;5.68;;;;;;;;;;10208410;28;20080;-62
2024/01/16 10:02:58;;;;;;;8.45;5.82;;;;;;;;;;10207516;29;20038;-63
2024/01/16 10:07:59;;;;;;;7.38;5.78;;;;;;;;;;10205576;29;20823;-62
2024/01/16 10:13:00;;;;;;;10.45;6.18;;;;;;;;;;10207316;29;20094;-62
2024/01/16 10:18:00;;;;;;;9.05;5.68;;;;;;;;;;10200069;29;20029;-66
2024/01/16 10:23:03;;;;;;;7.72;5.93;;;;;;;;;;10201178;29;20036;-63
2024/01/16 10:28:07;;;;;;;7.50;5.50;;;;;;;;;;10184523;28;20035;-63
2024/01/16 10:33:16;;;;;;;6.20;5.10;;;;;;;;;;10202419;28;20063;-64
2024/01/16 10:38:22;;;;;;;7.25;5.25;;;;;;;;;;10195811;28;20055;-63
2024/01/16 10:43:22;;;;;;;6.22;5.20;;;;;;;;;;10207114;29;20062;-62
2024/01/16 10:48:23;;;;;;;7.47;5.10;;;;;;;;;;10206441;29;20063;-62
2024/01/16 10:53:27;;;;;;;6.85;5.03;;;;;;;;;;10190510;29;20027;-63
2024/01/16 10:58:31;;;;;;;6.80;5.00;;;;;;;;;;10204323;29;20063;-62
2024/01/16 11:03:47;;;;;;;6.00;5.00;;;;;;;;;;10205409;29;20071;-62
2024/01/16 11:08:48;;;;;;;6.20;5.00;;;;;;;;;;10201491;29;20515;-62
2024/01/16 11:13:50;;;;;;;9.30;4.90;;;;;;;;;;10198067;29;20387;-62
2024/01/16 11:18:51;;;;;;;8.32;4.57;;;;;;;;;;10204925;29;20027;-64
2024/01/16 11:23:52;;;;;;;7.65;4.78;;;;;;;;;;10205320;29;20031;-62
2024/01/16 11:28:56;;;;;;;8.15;5.75;;;;;;;;;;10184627;29;20505;-62
2024/01/16 11:33:59;;;;;;;6.32;4.82;;;;;;;;;;10202909;28;20028;-66
2024/01/16 11:39:00;;;;;;;8.18;5.10;;;;;;;;;;10256050;23;20067;-48
2024/01/16 11:44:01;;;;;;;5.43;4.38;;;;;;;;;;10252731;28;20035;-53
2024/01/16 11:49:04;;;;;;;5.97;4.60;;;;;;;;;;10252561;28;20459;-51
2024/01/16 11:54:09;;;;;;;6.43;4.75;;;;;;;;;;10252472;28;20027;-48
2024/01/16 11:59:43;;;;;;;6.80;4.90;;;;;;;;;;10252325;28;20352;-50
2024/01/16 12:05:02;;;;;;;6.30;4.60;;;;;;;;;;10247456;28;20065;-48
2024/01/16 12:10:06;;;;;;;6.15;4.50;;;;;;;;;;10252081;28;20034;-54
2024/01/16 12:15:16;;;;;;;7.38;4.50;;;;;;;;;;10251741;28;20070;-48
2024/01/16 12:20:18;;;;;;;6.88;4.50;;;;;;;;;;10255965;28;20031;-53
2024/01/16 12:25:24;;;;;;;4.75;4.10;;;;;;;;;;10258628;28;20062;-47
2024/01/16 12:30:28;;;;;;;7.53;4.50;;;;;;;;;;10258647;28;20023;-51
2024/01/16 12:40:29;;;;;;;5.15;4.43;;;;;;;;;;10482476;28;20614;-47
2024/01/16 12:45:31;;;;;;;6.03;4.10;;;;;;;;;;10425672;28;20037;-48
2024/01/16 12:50:32;;;;;;;7.93;4.63;;;;;;;;;;10398841;28;20492;-46
2024/01/16 12:55:36;;;;;;;5.85;4.53;;;;;;;;;;10386482;28;20087;-46
2024/01/16 13:00:38;;;;;;;3.92;3.60;;;;;;;;;;10430128;28;20429;-46
2024/01/16 13:05:39;;;;;;;5.80;4.22;;;;;;;;;;10397510;28;20025;-46
2024/01/16 13:10:40;;;;;;;6.03;4.15;;;;;;;;;;10435371;28;20033;-47
2024/01/16 13:15:41;;;;;;;5.45;4.07;;;;;;;;;;10398747;28;20040;-50
2024/01/16 13:20:42;;;;;;;3.92;3.53;;;;;;;;;;10404106;28;20434;-51
2024/01/16 13:25:46;;;;;;;6.88;4.05;;;;;;;;;;10398363;28;20030;-52
2024/01/16 13:30:48;;;;;;;5.97;4.00;;;;;;;;;;10402207;28;20583;-55
2024/01/16 13:35:49;;;;;;;4.88;3.95;;;;;;;;;;10394449;28;20065;-50
2024/01/16 13:40:50;;;;;;;5.18;3.95;;;;;;;;;;10411095;28;20400;-54
2024/01/16 13:45:51;;;;;;;6.78;4.00;;;;;;;;;;10396686;28;20026;-52
2024/01/16 13:50:52;;;;;;;6.07;3.95;;;;;;;;;;10371573;28;20033;-51
2024/01/16 13:55:53;;;;;;;6.32;3.70;;;;;;;;;;10367263;28;20054;-51
2024/01/16 14:00:53;;;;;;;5.90;4.45;;;;;;;;;;10401280;28;20026;-48
2024/01/16 14:05:55;;;;;;;4.85;3.78;;;;;;;;;;10368525;28;20036;-50
2024/01/16 14:10:56;;;;;;;6.25;4.00;;;;;;;;;;10368862;28;20076;-50
2024/01/16 14:15:57;;;;;;;4.65;3.85;;;;;;;;;;10365085;28;20113;-51
2024/01/16 14:20:57;;;;;;;4.70;3.95;;;;;;;;;;10367013;28;20095;-54
2024/01/16 14:25:59;;;;;;;6.43;4.38;;;;;;;;;;10369809;28;20543;-51
2024/01/16 14:31:00;;;;;;;7.90;4.53;;;;;;;;;;10366488;28;20056;-51
2024/01/16 14:36:00;;;;;;;4.90;4.10;;;;;;;;;;10351266;28;20085;-48
2024/01/16 14:41:01;;;;;;;5.13;4.32;;;;;;;;;;10366681;28;20029;-51
2024/01/16 14:46:03;;;;;;;5.30;3.92;;;;;;;;;;10362225;28;20041;-50
2024/01/16 14:51:04;;;;;;;4.68;3.50;;;;;;;;;;10357530;28;20083;-49
2024/01/16 14:56:05;;;;;;;8.02;4.55;;;;;;;;;;10353417;28;20041;-52
2024/01/16 15:01:06;;;;;;;6.05;4.22;;;;;;;;;;10366823;28;20361;-50
2024/01/16 15:06:10;;;;;;;5.10;4.07;;;;;;;;;;10367572;28;20068;-50
2024/01/16 15:11:11;;;;;;;6.60;3.90;;;;;;;;;;10355250;28;20033;-50
2024/01/16 15:16:11;;;;;;;4.57;3.83;;;;;;;;;;10363699;28;20482;-51
2024/01/16 15:21:12;;;;;;;5.88;4.00;;;;;;;;;;10364991;28;20030;-50
2024/01/16 15:26:18;;;;;;;4.55;3.42;;;;;;;;;;10365513;28;20034;-52
2024/01/16 15:31:21;;;;;;;7.63;4.20;;;;;;;;;;10362535;28;20065;-49
2024/01/16 15:36:21;;;;;;;5.53;3.80;;;;;;;;;;10365114;28;20268;-50
2024/01/16 15:41:22;;;;;;;4.00;3.25;;;;;;;;;;10365179;28;20188;-51
2024/01/16 15:46:23;;;;;;;4.95;3.85;;;;;;;;;;10365623;28;20030;-52
2024/01/16 15:51:24;;;;;;;4.90;3.58;;;;;;;;;;10364595;28;20037;-49
2024/01/16 15:56:26;;;;;;;5.63;3.10;;;;;;;;;;10364786;28;20038;-50
2024/01/16 16:01:27;;;;;;;6.25;3.47;;;;;;;;;;10363269;28;20516;-50
2024/01/16 16:06:28;;;;;;;4.35;2.95;;;;;;;;;;10365163;28;20041;-49
2024/01/16 16:11:32;;;;;;;4.40;2.95;;;;;;;;;;10359497;28;20057;-51
2024/01/16 16:16:33;;;;;;;4.38;3.15;;;;;;;;;;10350726;28;20074;-46
2024/01/16 16:21:34;;;;;;;3.65;3.33;;;;;;;;;;10363281;28;20112;-50
2024/01/16 16:26:42;;;;;;;4.15;3.38;;;;;;;;;;10362847;28;20057;-47
2024/01/16 16:31:43;;;;;;;3.92;3.53;;;;;;;;;;10363944;28;20060;-50
2024/01/16 16:36:46;;;;;;;4.63;3.50;;;;;;;;;;10363855;28;20497;-50
2024/01/16 16:41:46;;;;;;;6.28;3.88;;;;;;;;;;10364545;28;20120;-49
2024/01/16 16:46:47;;;;;;;6.25;3.80;;;;;;;;;;10361235;28;20481;-48
2024/01/16 16:51:47;;;;;;;7.30;3.53;;;;;;;;;;10364885;28;20109;-51
2024/01/16 16:56:48;;;;;;;4.80;3.60;;;;;;;;;;10364776;28;20038;-50
2024/01/16 17:01:50;;;;;;;7.97;3.75;;;;;;;;;;10356415;28;20080;-51
2024/01/16 17:06:53;;;;;;;5.45;3.65;;;;;;;;;;10351652;28;20037;-51
2024/01/16 17:11:55;;;;;;;7.07;3.70;;;;;;;;;;10355847;28;20061;-50
2024/01/16 17:16:56;;;;;;;6.90;4.05;;;;;;;;;;10330802;28;20480;-48
2024/01/16 17:21:57;;;;;;;9.93;4.53;;;;;;;;;;10379656;28;20032;-47
2024/01/16 17:26:57;;;;;;;9.00;5.03;;;;;;;;;;10351753;28;20025;-47
2024/01/16 17:31:58;;;;;;;8.55;4.65;;;;;;;;;;10345599;28;20037;-46
2024/01/16 17:36:58;;;;;;;9.52;4.53;;;;;;;;;;10355451;28;20162;-47
2024/01/16 17:41:59;;;;;;;7.78;4.90;;;;;;;;;;10355584;28;20033;-48
2024/01/16 17:47:00;;;;;;;9.50;4.97;;;;;;;;;;10283350;28;20041;-50
2024/01/16 17:52:03;;;;;;;8.10;5.00;;;;;;;;;;10331684;28;20481;-45
2024/01/16 17:57:04;;;;;;;11.13;5.38;;;;;;;;;;10364190;28;20116;-53
2024/01/16 18:02:08;;;;;;;11.10;4.43;;;;;;;;;;10311301;28;20553;-48
2024/01/16 18:07:11;;;;;;;7.72;5.00;;;;;;;;;;10305845;28;20061;-48
2024/01/16 18:12:12;;;;;;;12.55;5.15;;;;;;;;;;10344676;28;20566;-47
2024/01/16 18:17:13;;;;;;;17.20;4.80;;;;;;;;;;10363581;28;20041;-51
2024/01/16 18:22:14;;;;;;;18.73;4.93;;;;;;;;;;10358993;28;20071;-50
2024/01/16 18:27:14;;;;;;;26.50;5.25;;;;;;;;;;10305730;28;20025;-50
2024/01/16 18:32:16;;;;;;;8.05;4.43;;;;;;;;;;10285294;28;20029;-50
2024/01/16 18:37:18;;;;;;;9.70;4.40;;;;;;;;;;10275364;28;20046;-51
2024/01/16 18:42:22;;;;;;;10.90;4.80;;;;;;;;;;10310614;28;20056;-54
2024/01/16 18:47:24;;;;;;;10.88;4.53;;;;;;;;;;10314233;28;20418;-50
2024/01/16 18:52:25;;;;;;;9.52;5.25;;;;;;;;;;10360812;28;20032;-52
2024/01/16 18:57:26;;;;;;;12.13;5.13;;;;;;;;;;10277478;28;20029;-52
2024/01/16 19:02:27;;;;;;;12.85;5.50;;;;;;;;;;10285031;28;20049;-50
2024/01/16 19:07:28;;;;;;;12.95;5.78;;;;;;;;;;10283689;28;20034;-47
2024/01/16 19:12:28;;;;;;;9.90;6.40;;;;;;;;;;10278284;28;21527;-50
2024/01/16 19:17:30;;;;;;;9.73;6.10;;;;;;;;;;10282328;28;20049;-51
2024/01/16 19:22:31;;;;;;;11.25;6.07;;;;;;;;;;10284043;28;20354;-51
2024/01/16 19:27:31;;;;;;;13.15;6.25;;;;;;;;;;10361538;28;20367;-47
2024/01/16 19:32:32;;;;;;;13.48;6.93;;;;;;;;;;10352772;28;20500;-48
2024/01/16 19:37:33;;;;;;;10.50;6.00;;;;;;;;;;10289527;28;20053;-49
2024/01/16 19:42:34;;;;;;;12.88;7.55;;;;;;;;;;10279599;28;20040;-49
2024/01/16 19:47:37;;;;;;;10.50;6.22;;;;;;;;;;10283373;28;20492;-55
2024/01/16 19:52:39;;;;;;;13.48;7.15;;;;;;;;;;10355575;28;20033;-50
2024/01/16 19:57:41;;;;;;;15.70;6.53;;;;;;;;;;10342507;28;20096;-51
2024/01/16 20:02:42;;;;;;;9.85;6.35;;;;;;;;;;10353635;28;20060;-50
2024/01/16 20:07:45;;;;;;;13.52;6.65;;;;;;;;;;10345760;28;20060;-54
2024/01/16 20:12:50;;;;;;;10.85;6.43;;;;;;;;;;10356714;28;20030;-52
2024/01/16 20:17:52;;;;;;;11.68;6.45;;;;;;;;;;10351764;28;20038;-49
2024/01/16 20:22:54;;;;;;;9.98;6.45;;;;;;;;;;10362125;28;20022;-50
2024/01/16 20:27:54;;;;;;;13.23;6.32;;;;;;;;;;10363140;28;20022;-53
2024/01/16 20:32:55;;;;;;;9.93;6.38;;;;;;;;;;10363750;28;20096;-49
2024/01/16 20:37:55;;;;;;;20.23;7.45;;;;;;;;;;10363018;28;20416;-51
2024/01/16 20:42:56;;;;;;;9.80;6.55;;;;;;;;;;10362414;28;20466;-51
2024/01/16 20:47:57;;;;;;;11.23;6.63;;;;;;;;;;10360894;28;20517;-49
2024/01/16 20:52:58;;;;;;;10.68;6.55;;;;;;;;;;10361193;28;20481;-51
2024/01/16 20:58:00;;;;;;;12.63;6.47;;;;;;;;;;10353470;28;20030;-51
2024/01/16 21:03:06;;;;;;;12.35;6.50;;;;;;;;;;10367704;28;20409;-49
2024/01/16 21:08:09;;;;;;;8.90;6.28;;;;;;;;;;10366008;28;20034;-51
2024/01/16 21:13:14;;;;;;;16.05;6.30;;;;;;;;;;10355455;28;20029;-52
2024/01/16 21:18:16;;;;;;;9.13;6.50;;;;;;;;;;10370915;28;20072;-47
2024/01/16 21:23:17;;;;;;;10.40;6.60;;;;;;;;;;10370333;28;20049;-50
2024/01/16 21:28:17;;;;;;;9.20;6.75;;;;;;;;;;10370713;28;20061;-48
2024/01/16 21:33:18;;;;;;;10.35;6.88;;;;;;;;;;10370718;28;20026;-48
2024/01/16 21:38:18;;;;;;;9.65;6.63;;;;;;;;;;10368041;28;20058;-50
2024/01/16 21:43:21;;;;;;;17.73;6.38;;;;;;;;;;10369320;28;20050;-49
2024/01/16 21:48:21;;;;;;;11.23;6.57;;;;;;;;;;10367379;28;20393;-51
2024/01/16 21:53:22;;;;;;;10.70;6.68;;;;;;;;;;10369622;28;20026;-54
2024/01/16 21:58:23;;;;;;;11.27;6.28;;;;;;;;;;10369824;28;20036;-50
2024/01/16 22:03:23;;;;;;;14.18;7.10;;;;;;;;;;10369903;28;20052;-51
2024/01/16 22:08:24;;;;;;;11.63;6.07;;;;;;;;;;10355148;28;20025;-51
2024/01/16 22:13:24;;;;;;;10.18;6.35;;;;;;;;;;10360936;28;20026;-47
2024/01/16 22:18:25;;;;;;;9.52;5.85;;;;;;;;;;10353460;28;20040;-51
2024/01/16 22:23:26;;;;;;;8.27;5.88;;;;;;;;;;10373353;28;20424;-51
2024/01/16 22:28:27;;;;;;;7.97;6.05;;;;;;;;;;10374644;28;20030;-48
2024/01/16 22:33:28;;;;;;;10.45;6.15;;;;;;;;;;10368982;28;20100;-50
2024/01/16 22:38:29;;;;;;;10.77;5.85;;;;;;;;;;10366467;28;20037;-48
2024/01/16 22:43:30;;;;;;;9.05;6.50;;;;;;;;;;10292381;28;20029;-49
2024/01/16 22:48:31;;;;;;;11.38;6.55;;;;;;;;;;10282815;28;20044;-56
2024/01/16 22:53:32;;;;;;;10.02;6.15;;;;;;;;;;10264589;28;20026;-52
2024/01/16 22:58:32;;;;;;;7.63;5.93;;;;;;;;;;10283132;28;20026;-51
2024/01/16 23:03:33;;;;;;;9.48;6.53;;;;;;;;;;10283178;28;20021;-50
2024/01/16 23:08:33;;;;;;;8.68;5.80;;;;;;;;;;10282984;28;20036;-48
2024/01/16 23:13:34;;;;;;;8.90;6.00;;;;;;;;;;10281663;28;20080;-52
2024/01/16 23:18:36;;;;;;;8.77;5.93;;;;;;;;;;10282358;28;20037;-51
2024/01/16 23:23:36;;;;;;;10.35;6.20;;;;;;;;;;10278177;28;20026;-52
2024/01/16 23:28:37;;;;;;;14.25;5.97;;;;;;;;;;10285453;28;20473;-54
2024/01/16 23:33:39;;;;;;;8.65;5.47;;;;;;;;;;10301938;28;20091;-53
2024/01/16 23:38:41;;;;;;;9.15;6.47;;;;;;;;;;10364702;28;20532;-52
2024/01/16 23:43:43;;;;;;;11.05;5.47;;;;;;;;;;10345559;28;20442;-54
2024/01/16 23:48:44;;;;;;;9.10;6.10;;;;;;;;;;10363721;28;20443;-52
2024/01/16 23:53:44;;;;;;;8.68;5.03;;;;;;;;;;10365856;28;20026;-52
2024/01/16 23:58:47;;;;;;;9.63;5.25;;;;;;;;;;10365645;28;20034;-55
